sensor_id;sensor_type;location;lat;lon;timestamp;P1;durP1;ratioP1;P2;durP2;ratioP2
42200;SDS011;27869;51.442;7.540;2023-02-19T00:01:40;11.13;;;4.43;;
42200;SDS011;27869;51.442;7.540;2023-02-19T00:04:09;12.43;;;4.20;;
42200;SDS011;27869;51.442;7.540;2023-02-19T00:06:38;12.75;;;4.70;;
42200;SDS011;27869;51.442;7.540;2023-02-19T00:09:06;11.27;;;3.92;;
42200;SDS011;27869;51.442;7.540;2023-02-19T00:11:34;12.68;;;4.40;;
42200;SDS011;27869;51.442;7.540;2023-02-19T00:14:03;12.05;;;4.60;;
42200;SDS011;27869;51.442;7.540;2023-02-19T00:16:32;10.57;;;3.75;;
42200;SDS011;27869;51.442;7.540;2023-02-19T00:19:02;12.68;;;4.57;;
42200;SDS011;27869;51.442;7.540;2023-02-19T00:21:30;12.27;;;4.85;;
42200;SDS011;27869;51.442;7.540;2023-02-19T00:24:01;12.35;;;4.57;;
42200;SDS011;27869;51.442;7.540;2023-02-19T00:26:29;12.43;;;4.72;;
42200;SDS011;27869;51.442;7.540;2023-02-19T00:28:56;13.38;;;5.32;;
42200;SDS011;27869;51.442;7.540;2023-02-19T00:31:25;13.63;;;4.97;;
42200;SDS011;27869;51.442;7.540;2023-02-19T00:33:54;12.88;;;5.13;;
42200;SDS011;27869;51.442;7.540;2023-02-19T00:36:23;12.70;;;5.18;;
42200;SDS011;27869;51.442;7.540;2023-02-19T00:38:51;14.57;;;6.10;;
42200;SDS011;27869;51.442;7.540;2023-02-19T00:41:19;13.45;;;5.47;;
42200;SDS011;27869;51.442;7.540;2023-02-19T00:43:48;13.80;;;5.68;;
42200;SDS011;27869;51.442;7.540;2023-02-19T00:46:18;13.60;;;5.80;;
42200;SDS011;27869;51.442;7.540;2023-02-19T00:48:50;13.60;;;5.97;;
42200;SDS011;27869;51.442;7.540;2023-02-19T00:51:17;16.13;;;6.82;;
42200;SDS011;27869;51.442;7.540;2023-02-19T00:53:45;14.57;;;6.40;;
42200;SDS011;27869;51.442;7.540;2023-02-19T00:56:11;15.93;;;6.45;;
42200;SDS011;27869;51.442;7.540;2023-02-19T00:58:38;15.90;;;6.43;;
42200;SDS011;27869;51.442;7.540;2023-02-19T01:01:06;14.48;;;6.07;;
42200;SDS011;27869;51.442;7.540;2023-02-19T01:03:33;15.73;;;6.88;;
42200;SDS011;27869;51.442;7.540;2023-02-19T01:06:03;14.43;;;5.70;;
42200;SDS011;27869;51.442;7.540;2023-02-19T01:08:31;14.68;;;5.28;;
42200;SDS011;27869;51.442;7.540;2023-02-19T01:10:59;12.77;;;4.97;;
42200;SDS011;27869;51.442;7.540;2023-02-19T01:13:26;14.82;;;5.03;;
42200;SDS011;27869;51.442;7.540;2023-02-19T01:15:53;12.57;;;4.32;;
42200;SDS011;27869;51.442;7.540;2023-02-19T01:18:27;9.68;;;3.30;;
42200;SDS011;27869;51.442;7.540;2023-02-19T01:20:54;9.20;;;3.17;;
42200;SDS011;27869;51.442;7.540;2023-02-19T01:23:22;9.15;;;2.75;;
42200;SDS011;27869;51.442;7.540;2023-02-19T01:25:49;9.88;;;3.05;;
42200;SDS011;27869;51.442;7.540;2023-02-19T01:28:16;10.02;;;3.42;;
42200;SDS011;27869;51.442;7.540;2023-02-19T01:30:42;9.50;;;3.00;;
42200;SDS011;27869;51.442;7.540;2023-02-19T01:33:09;10.70;;;3.35;;
42200;SDS011;27869;51.442;7.540;2023-02-19T01:35:37;9.95;;;3.42;;
42200;SDS011;27869;51.442;7.540;2023-02-19T01:38:07;9.98;;;3.08;;
42200;SDS011;27869;51.442;7.540;2023-02-19T01:40:35;10.50;;;3.33;;
42200;SDS011;27869;51.442;7.540;2023-02-19T01:43:02;10.30;;;3.50;;
42200;SDS011;27869;51.442;7.540;2023-02-19T01:45:30;10.65;;;4.10;;
42200;SDS011;27869;51.442;7.540;2023-02-19T01:48:00;10.00;;;3.22;;
42200;SDS011;27869;51.442;7.540;2023-02-19T01:50:35;11.02;;;3.60;;
42200;SDS011;27869;51.442;7.540;2023-02-19T01:53:06;11.30;;;3.80;;
42200;SDS011;27869;51.442;7.540;2023-02-19T01:55:38;12.70;;;5.18;;
42200;SDS011;27869;51.442;7.540;2023-02-19T02:00:33;13.13;;;5.18;;
42200;SDS011;27869;51.442;7.540;2023-02-19T02:03:01;12.50;;;5.03;;
42200;SDS011;27869;51.442;7.540;2023-02-19T02:05:35;12.45;;;4.93;;
42200;SDS011;27869;51.442;7.540;2023-02-19T02:08:07;14.25;;;5.53;;
42200;SDS011;27869;51.442;7.540;2023-02-19T02:10:53;13.43;;;5.50;;
42200;SDS011;27869;51.442;7.540;2023-02-19T02:13:21;14.90;;;5.43;;
42200;SDS011;27869;51.442;7.540;2023-02-19T02:15:50;15.75;;;5.95;;
42200;SDS011;27869;51.442;7.540;2023-02-19T02:18:23;14.95;;;6.35;;
42200;SDS011;27869;51.442;7.540;2023-02-19T02:21:06;15.32;;;6.00;;
42200;SDS011;27869;51.442;7.540;2023-02-19T02:23:51;15.88;;;6.10;;
42200;SDS011;27869;51.442;7.540;2023-02-19T02:26:36;12.68;;;5.43;;
42200;SDS011;27869;51.442;7.540;2023-02-19T02:29:20;12.85;;;4.95;;
42200;SDS011;27869;51.442;7.540;2023-02-19T02:32:04;12.98;;;4.75;;
42200;SDS011;27869;51.442;7.540;2023-02-19T02:34:36;12.30;;;5.03;;
42200;SDS011;27869;51.442;7.540;2023-02-19T02:37:10;14.25;;;5.50;;
42200;SDS011;27869;51.442;7.540;2023-02-19T02:39:38;13.55;;;5.55;;
42200;SDS011;27869;51.442;7.540;2023-02-19T02:42:07;13.98;;;6.13;;
42200;SDS011;27869;51.442;7.540;2023-02-19T02:44:48;13.65;;;5.63;;
42200;SDS011;27869;51.442;7.540;2023-02-19T02:47:30;15.13;;;6.18;;
42200;SDS011;27869;51.442;7.540;2023-02-19T02:50:10;14.48;;;6.40;;
42200;SDS011;27869;51.442;7.540;2023-02-19T02:52:43;15.60;;;5.88;;
42200;SDS011;27869;51.442;7.540;2023-02-19T02:55:31;16.80;;;8.05;;
42200;SDS011;27869;51.442;7.540;2023-02-19T02:58:03;17.58;;;7.72;;
42200;SDS011;27869;51.442;7.540;2023-02-19T03:00:30;19.65;;;9.52;;
42200;SDS011;27869;51.442;7.540;2023-02-19T03:03:24;19.25;;;10.18;;
42200;SDS011;27869;51.442;7.540;2023-02-19T03:05:53;23.98;;;9.70;;
42200;SDS011;27869;51.442;7.540;2023-02-19T03:08:24;20.48;;;10.68;;
42200;SDS011;27869;51.442;7.540;2023-02-19T03:10:56;20.75;;;8.98;;
42200;SDS011;27869;51.442;7.540;2023-02-19T03:13:46;21.50;;;9.00;;
42200;SDS011;27869;51.442;7.540;2023-02-19T03:16:32;19.60;;;7.95;;
42200;SDS011;27869;51.442;7.540;2023-02-19T03:19:22;18.30;;;8.02;;
42200;SDS011;27869;51.442;7.540;2023-02-19T03:21:53;19.30;;;8.82;;
42200;SDS011;27869;51.442;7.540;2023-02-19T03:24:25;17.95;;;7.72;;
42200;SDS011;27869;51.442;7.540;2023-02-19T03:27:11;18.35;;;8.18;;
42200;SDS011;27869;51.442;7.540;2023-02-19T03:29:40;19.75;;;9.68;;
42200;SDS011;27869;51.442;7.540;2023-02-19T03:32:11;23.40;;;8.27;;
42200;SDS011;27869;51.442;7.540;2023-02-19T03:34:47;19.20;;;8.80;;
42200;SDS011;27869;51.442;7.540;2023-02-19T03:37:19;20.95;;;9.43;;
42200;SDS011;27869;51.442;7.540;2023-02-19T03:39:53;23.38;;;11.35;;
42200;SDS011;27869;51.442;7.540;2023-02-19T03:42:23;24.92;;;12.63;;
42200;SDS011;27869;51.442;7.540;2023-02-19T03:45:05;23.95;;;12.60;;
42200;SDS011;27869;51.442;7.540;2023-02-19T03:47:50;28.10;;;13.00;;
42200;SDS011;27869;51.442;7.540;2023-02-19T03:50:24;23.65;;;11.35;;
42200;SDS011;27869;51.442;7.540;2023-02-19T03:52:57;26.17;;;12.45;;
42200;SDS011;27869;51.442;7.540;2023-02-19T03:55:29;25.00;;;11.70;;
42200;SDS011;27869;51.442;7.540;2023-02-19T03:58:03;23.58;;;10.80;;
42200;SDS011;27869;51.442;7.540;2023-02-19T04:00:35;24.70;;;11.02;;
42200;SDS011;27869;51.442;7.540;2023-02-19T04:03:06;24.35;;;11.75;;
42200;SDS011;27869;51.442;7.540;2023-02-19T04:05:43;24.83;;;12.82;;
42200;SDS011;27869;51.442;7.540;2023-02-19T04:08:13;25.83;;;12.85;;
42200;SDS011;27869;51.442;7.540;2023-02-19T04:10:43;26.77;;;13.00;;
42200;SDS011;27869;51.442;7.540;2023-02-19T04:13:14;24.83;;;12.20;;
42200;SDS011;27869;51.442;7.540;2023-02-19T04:15:45;25.38;;;11.13;;
42200;SDS011;27869;51.442;7.540;2023-02-19T04:18:14;20.52;;;9.50;;
42200;SDS011;27869;51.442;7.540;2023-02-19T04:20:45;20.83;;;8.40;;
42200;SDS011;27869;51.442;7.540;2023-02-19T04:23:13;22.30;;;9.32;;
42200;SDS011;27869;51.442;7.540;2023-02-19T04:25:43;23.90;;;10.20;;
42200;SDS011;27869;51.442;7.540;2023-02-19T04:28:14;22.02;;;7.65;;
42200;SDS011;27869;51.442;7.540;2023-02-19T04:30:42;18.83;;;7.45;;
42200;SDS011;27869;51.442;7.540;2023-02-19T04:33:09;18.63;;;7.72;;
42200;SDS011;27869;51.442;7.540;2023-02-19T04:35:36;17.65;;;7.57;;
42200;SDS011;27869;51.442;7.540;2023-02-19T04:38:04;17.92;;;8.00;;
42200;SDS011;27869;51.442;7.540;2023-02-19T04:40:31;16.38;;;6.75;;
42200;SDS011;27869;51.442;7.540;2023-02-19T04:42:58;20.63;;;7.03;;
42200;SDS011;27869;51.442;7.540;2023-02-19T04:45:25;15.85;;;6.78;;
42200;SDS011;27869;51.442;7.540;2023-02-19T04:47:51;17.73;;;7.25;;
42200;SDS011;27869;51.442;7.540;2023-02-19T04:50:18;17.52;;;6.53;;
42200;SDS011;27869;51.442;7.540;2023-02-19T04:52:46;19.00;;;6.95;;
42200;SDS011;27869;51.442;7.540;2023-02-19T04:55:15;19.23;;;7.03;;
42200;SDS011;27869;51.442;7.540;2023-02-19T04:57:42;18.83;;;7.15;;
42200;SDS011;27869;51.442;7.540;2023-02-19T05:00:09;18.80;;;7.22;;
42200;SDS011;27869;51.442;7.540;2023-02-19T05:02:36;18.33;;;7.88;;
42200;SDS011;27869;51.442;7.540;2023-02-19T05:05:03;17.02;;;6.47;;
42200;SDS011;27869;51.442;7.540;2023-02-19T05:07:30;18.90;;;6.88;;
42200;SDS011;27869;51.442;7.540;2023-02-19T05:09:58;14.80;;;5.53;;
42200;SDS011;27869;51.442;7.540;2023-02-19T05:12:26;17.83;;;6.78;;
42200;SDS011;27869;51.442;7.540;2023-02-19T05:14:55;16.60;;;6.00;;
42200;SDS011;27869;51.442;7.540;2023-02-19T05:17:22;16.58;;;6.13;;
42200;SDS011;27869;51.442;7.540;2023-02-19T05:19:49;16.30;;;6.50;;
42200;SDS011;27869;51.442;7.540;2023-02-19T05:22:15;19.15;;;6.45;;
42200;SDS011;27869;51.442;7.540;2023-02-19T05:24:42;17.60;;;6.72;;
42200;SDS011;27869;51.442;7.540;2023-02-19T05:27:09;17.23;;;6.70;;
42200;SDS011;27869;51.442;7.540;2023-02-19T05:29:37;18.35;;;6.75;;
42200;SDS011;27869;51.442;7.540;2023-02-19T05:32:04;16.42;;;6.00;;
42200;SDS011;27869;51.442;7.540;2023-02-19T05:34:31;19.38;;;6.88;;
42200;SDS011;27869;51.442;7.540;2023-02-19T05:36:58;16.10;;;6.22;;
42200;SDS011;27869;51.442;7.540;2023-02-19T05:39:25;15.48;;;6.80;;
42200;SDS011;27869;51.442;7.540;2023-02-19T05:41:52;14.40;;;5.85;;
42200;SDS011;27869;51.442;7.540;2023-02-19T05:44:19;16.33;;;6.20;;
42200;SDS011;27869;51.442;7.540;2023-02-19T05:46:47;14.82;;;5.55;;
42200;SDS011;27869;51.442;7.540;2023-02-19T05:49:14;19.23;;;6.13;;
42200;SDS011;27869;51.442;7.540;2023-02-19T05:51:41;14.85;;;6.25;;
42200;SDS011;27869;51.442;7.540;2023-02-19T05:54:07;20.73;;;6.53;;
42200;SDS011;27869;51.442;7.540;2023-02-19T05:56:35;16.48;;;6.10;;
42200;SDS011;27869;51.442;7.540;2023-02-19T05:59:04;16.67;;;5.65;;
42200;SDS011;27869;51.442;7.540;2023-02-19T06:01:32;16.05;;;6.10;;
42200;SDS011;27869;51.442;7.540;2023-02-19T06:04:01;17.35;;;6.10;;
42200;SDS011;27869;51.442;7.540;2023-02-19T06:06:28;16.25;;;6.20;;
42200;SDS011;27869;51.442;7.540;2023-02-19T06:08:55;16.08;;;6.18;;
42200;SDS011;27869;51.442;7.540;2023-02-19T06:11:22;17.50;;;6.47;;
42200;SDS011;27869;51.442;7.540;2023-02-19T06:13:49;16.15;;;5.70;;
42200;SDS011;27869;51.442;7.540;2023-02-19T06:16:16;15.57;;;5.63;;
42200;SDS011;27869;51.442;7.540;2023-02-19T06:18:43;18.25;;;6.07;;
42200;SDS011;27869;51.442;7.540;2023-02-19T06:21:12;17.65;;;5.35;;
42200;SDS011;27869;51.442;7.540;2023-02-19T06:23:39;13.05;;;4.95;;
42200;SDS011;27869;51.442;7.540;2023-02-19T06:26:07;15.70;;;5.40;;
42200;SDS011;27869;51.442;7.540;2023-02-19T06:28:35;19.40;;;6.70;;
42200;SDS011;27869;51.442;7.540;2023-02-19T06:31:02;16.08;;;5.57;;
42200;SDS011;27869;51.442;7.540;2023-02-19T06:33:30;15.55;;;5.43;;
42200;SDS011;27869;51.442;7.540;2023-02-19T06:35:57;12.82;;;5.20;;
42200;SDS011;27869;51.442;7.540;2023-02-19T06:38:26;15.68;;;5.57;;
42200;SDS011;27869;51.442;7.540;2023-02-19T06:40:54;17.98;;;6.65;;
42200;SDS011;27869;51.442;7.540;2023-02-19T06:43:24;14.70;;;5.68;;
42200;SDS011;27869;51.442;7.540;2023-02-19T06:45:51;12.73;;;4.97;;
42200;SDS011;27869;51.442;7.540;2023-02-19T06:48:18;15.93;;;5.57;;
42200;SDS011;27869;51.442;7.540;2023-02-19T06:50:45;13.60;;;5.82;;
42200;SDS011;27869;51.442;7.540;2023-02-19T06:53:12;13.73;;;5.22;;
42200;SDS011;27869;51.442;7.540;2023-02-19T06:55:40;16.90;;;5.88;;
42200;SDS011;27869;51.442;7.540;2023-02-19T06:58:07;13.90;;;5.13;;
42200;SDS011;27869;51.442;7.540;2023-02-19T07:00:34;13.90;;;5.65;;
42200;SDS011;27869;51.442;7.540;2023-02-19T07:03:01;14.90;;;6.13;;
42200;SDS011;27869;51.442;7.540;2023-02-19T07:05:28;17.08;;;5.97;;
42200;SDS011;27869;51.442;7.540;2023-02-19T07:07:55;15.70;;;6.75;;
42200;SDS011;27869;51.442;7.540;2023-02-19T07:10:22;15.68;;;6.63;;
42200;SDS011;27869;51.442;7.540;2023-02-19T07:12:50;14.13;;;5.03;;
42200;SDS011;27869;51.442;7.540;2023-02-19T07:15:17;14.27;;;5.57;;
42200;SDS011;27869;51.442;7.540;2023-02-19T07:17:44;14.82;;;5.82;;
42200;SDS011;27869;51.442;7.540;2023-02-19T07:20:11;15.75;;;5.47;;
42200;SDS011;27869;51.442;7.540;2023-02-19T07:22:38;13.02;;;4.72;;
42200;SDS011;27869;51.442;7.540;2023-02-19T07:25:05;13.73;;;5.68;;
42200;SDS011;27869;51.442;7.540;2023-02-19T07:27:32;17.13;;;5.88;;
42200;SDS011;27869;51.442;7.540;2023-02-19T07:30:01;17.05;;;6.03;;
42200;SDS011;27869;51.442;7.540;2023-02-19T07:32:28;14.48;;;5.07;;
42200;SDS011;27869;51.442;7.540;2023-02-19T07:34:54;14.88;;;4.80;;
42200;SDS011;27869;51.442;7.540;2023-02-19T07:37:21;14.73;;;4.82;;
42200;SDS011;27869;51.442;7.540;2023-02-19T07:39:48;17.35;;;5.78;;
42200;SDS011;27869;51.442;7.540;2023-02-19T07:42:15;15.27;;;5.53;;
42200;SDS011;27869;51.442;7.540;2023-02-19T07:44:42;14.75;;;5.10;;
42200;SDS011;27869;51.442;7.540;2023-02-19T07:47:10;14.07;;;5.55;;
42200;SDS011;27869;51.442;7.540;2023-02-19T07:49:37;16.98;;;5.10;;
42200;SDS011;27869;51.442;7.540;2023-02-19T07:52:04;16.05;;;5.47;;
42200;SDS011;27869;51.442;7.540;2023-02-19T07:54:31;13.38;;;5.15;;
42200;SDS011;27869;51.442;7.540;2023-02-19T07:56:57;13.77;;;5.25;;
42200;SDS011;27869;51.442;7.540;2023-02-19T07:59:24;14.27;;;4.90;;
42200;SDS011;27869;51.442;7.540;2023-02-19T08:01:51;16.83;;;6.05;;
42200;SDS011;27869;51.442;7.540;2023-02-19T08:04:37;14.80;;;5.13;;
42200;SDS011;27869;51.442;7.540;2023-02-19T08:07:04;13.48;;;5.13;;
42200;SDS011;27869;51.442;7.540;2023-02-19T08:09:32;15.02;;;5.30;;
42200;SDS011;27869;51.442;7.540;2023-02-19T08:11:58;13.77;;;5.57;;
42200;SDS011;27869;51.442;7.540;2023-02-19T08:14:43;16.50;;;5.63;;
42200;SDS011;27869;51.442;7.540;2023-02-19T08:17:10;13.95;;;4.95;;
42200;SDS011;27869;51.442;7.540;2023-02-19T08:19:38;14.13;;;5.30;;
42200;SDS011;27869;51.442;7.540;2023-02-19T08:22:05;14.27;;;4.90;;
42200;SDS011;27869;51.442;7.540;2023-02-19T08:24:32;16.05;;;5.68;;
42200;SDS011;27869;51.442;7.540;2023-02-19T08:27:00;13.13;;;4.95;;
42200;SDS011;27869;51.442;7.540;2023-02-19T08:29:26;12.50;;;4.20;;
42200;SDS011;27869;51.442;7.540;2023-02-19T08:31:53;13.20;;;4.40;;
42200;SDS011;27869;51.442;7.540;2023-02-19T08:34:20;14.88;;;4.78;;
42200;SDS011;27869;51.442;7.540;2023-02-19T08:36:49;12.80;;;4.50;;
42200;SDS011;27869;51.442;7.540;2023-02-19T08:39:15;12.93;;;4.35;;
42200;SDS011;27869;51.442;7.540;2023-02-19T08:41:42;11.43;;;3.95;;
42200;SDS011;27869;51.442;7.540;2023-02-19T08:44:09;14.43;;;4.63;;
42200;SDS011;27869;51.442;7.540;2023-02-19T08:46:36;14.10;;;4.70;;
42200;SDS011;27869;51.442;7.540;2023-02-19T08:49:03;13.70;;;4.40;;
42200;SDS011;27869;51.442;7.540;2023-02-19T08:51:30;12.68;;;4.22;;
42200;SDS011;27869;51.442;7.540;2023-02-19T08:54:00;11.45;;;4.28;;
42200;SDS011;27869;51.442;7.540;2023-02-19T08:56:27;13.25;;;4.00;;
42200;SDS011;27869;51.442;7.540;2023-02-19T08:58:54;12.70;;;4.15;;
42200;SDS011;27869;51.442;7.540;2023-02-19T09:01:21;10.63;;;3.85;;
42200;SDS011;27869;51.442;7.540;2023-02-19T09:03:48;14.75;;;4.07;;
42200;SDS011;27869;51.442;7.540;2023-02-19T09:06:15;11.40;;;3.67;;
42200;SDS011;27869;51.442;7.540;2023-02-19T09:08:44;12.45;;;3.78;;
42200;SDS011;27869;51.442;7.540;2023-02-19T09:11:13;15.88;;;4.43;;
42200;SDS011;27869;51.442;7.540;2023-02-19T09:13:40;17.08;;;3.50;;
42200;SDS011;27869;51.442;7.540;2023-02-19T09:16:08;12.23;;;3.60;;
42200;SDS011;27869;51.442;7.540;2023-02-19T09:18:35;14.30;;;4.30;;
42200;SDS011;27869;51.442;7.540;2023-02-19T09:21:02;15.98;;;4.93;;
42200;SDS011;27869;51.442;7.540;2023-02-19T09:23:31;15.32;;;4.88;;
42200;SDS011;27869;51.442;7.540;2023-02-19T09:25:58;12.77;;;5.10;;
42200;SDS011;27869;51.442;7.540;2023-02-19T09:28:28;12.27;;;4.60;;
42200;SDS011;27869;51.442;7.540;2023-02-19T09:30:55;15.18;;;5.15;;
42200;SDS011;27869;51.442;7.540;2023-02-19T09:33:22;18.38;;;5.80;;
42200;SDS011;27869;51.442;7.540;2023-02-19T09:35:49;16.15;;;5.35;;
42200;SDS011;27869;51.442;7.540;2023-02-19T09:38:16;13.07;;;5.28;;
42200;SDS011;27869;51.442;7.540;2023-02-19T09:40:43;14.90;;;5.85;;
42200;SDS011;27869;51.442;7.540;2023-02-19T09:43:11;16.02;;;5.45;;
42200;SDS011;27869;51.442;7.540;2023-02-19T09:48:13;14.35;;;5.40;;
42200;SDS011;27869;51.442;7.540;2023-02-19T09:50:42;13.80;;;5.40;;
42200;SDS011;27869;51.442;7.540;2023-02-19T09:53:12;15.27;;;5.22;;
42200;SDS011;27869;51.442;7.540;2023-02-19T09:55:43;15.57;;;5.18;;
42200;SDS011;27869;51.442;7.540;2023-02-19T09:58:17;15.70;;;5.15;;
42200;SDS011;27869;51.442;7.540;2023-02-19T10:00:53;14.10;;;4.88;;
42200;SDS011;27869;51.442;7.540;2023-02-19T10:03:23;13.30;;;5.28;;
42200;SDS011;27869;51.442;7.540;2023-02-19T10:05:56;15.02;;;4.90;;
42200;SDS011;27869;51.442;7.540;2023-02-19T10:08:24;15.23;;;4.97;;
42200;SDS011;27869;51.442;7.540;2023-02-19T10:10:51;14.25;;;5.22;;
42200;SDS011;27869;51.442;7.540;2023-02-19T10:13:19;13.40;;;4.88;;
42200;SDS011;27869;51.442;7.540;2023-02-19T10:15:48;14.30;;;4.53;;
42200;SDS011;27869;51.442;7.540;2023-02-19T10:20:47;12.15;;;4.25;;
42200;SDS011;27869;51.442;7.540;2023-02-19T10:23:15;15.30;;;4.65;;
42200;SDS011;27869;51.442;7.540;2023-02-19T10:25:44;14.43;;;4.80;;
42200;SDS011;27869;51.442;7.540;2023-02-19T10:28:14;14.77;;;5.15;;
42200;SDS011;27869;51.442;7.540;2023-02-19T10:30:43;12.80;;;5.55;;
42200;SDS011;27869;51.442;7.540;2023-02-19T10:33:14;16.60;;;5.40;;
42200;SDS011;27869;51.442;7.540;2023-02-19T10:35:53;14.65;;;5.57;;
42200;SDS011;27869;51.442;7.540;2023-02-19T10:38:22;15.30;;;4.88;;
42200;SDS011;27869;51.442;7.540;2023-02-19T10:40:56;14.35;;;4.97;;
42200;SDS011;27869;51.442;7.540;2023-02-19T10:43:26;14.73;;;5.15;;
42200;SDS011;27869;51.442;7.540;2023-02-19T10:45:58;14.52;;;4.45;;
42200;SDS011;27869;51.442;7.540;2023-02-19T10:48:29;15.57;;;4.72;;
42200;SDS011;27869;51.442;7.540;2023-02-19T10:51:01;10.88;;;4.07;;
42200;SDS011;27869;51.442;7.540;2023-02-19T10:53:37;11.73;;;3.75;;
42200;SDS011;27869;51.442;7.540;2023-02-19T10:56:10;13.82;;;3.58;;
42200;SDS011;27869;51.442;7.540;2023-02-19T10:58:40;12.20;;;3.53;;
42200;SDS011;27869;51.442;7.540;2023-02-19T11:01:09;11.63;;;3.72;;
42200;SDS011;27869;51.442;7.540;2023-02-19T11:03:38;11.45;;;3.55;;
42200;SDS011;27869;51.442;7.540;2023-02-19T11:06:07;11.30;;;3.67;;
42200;SDS011;27869;51.442;7.540;2023-02-19T11:08:44;13.45;;;3.72;;
42200;SDS011;27869;51.442;7.540;2023-02-19T11:11:21;10.98;;;3.22;;
42200;SDS011;27869;51.442;7.540;2023-02-19T11:13:56;10.55;;;3.30;;
42200;SDS011;27869;51.442;7.540;2023-02-19T11:16:36;12.88;;;3.38;;
42200;SDS011;27869;51.442;7.540;2023-02-19T11:19:27;10.98;;;3.35;;
42200;SDS011;27869;51.442;7.540;2023-02-19T11:21:59;11.68;;;3.30;;
42200;SDS011;27869;51.442;7.540;2023-02-19T11:24:29;9.77;;;2.97;;
42200;SDS011;27869;51.442;7.540;2023-02-19T11:26:59;12.63;;;3.00;;
42200;SDS011;27869;51.442;7.540;2023-02-19T11:29:28;10.23;;;3.10;;
42200;SDS011;27869;51.442;7.540;2023-02-19T11:34:51;12.25;;;2.80;;
42200;SDS011;27869;51.442;7.540;2023-02-19T11:37:42;10.23;;;3.22;;
42200;SDS011;27869;51.442;7.540;2023-02-19T11:40:26;9.43;;;2.70;;
42200;SDS011;27869;51.442;7.540;2023-02-19T11:43:04;9.13;;;2.90;;
42200;SDS011;27869;51.442;7.540;2023-02-19T11:45:47;10.73;;;3.05;;
42200;SDS011;27869;51.442;7.540;2023-02-19T11:48:25;10.77;;;2.78;;
42200;SDS011;27869;51.442;7.540;2023-02-19T11:54:23;9.15;;;2.60;;
42200;SDS011;27869;51.442;7.540;2023-02-19T11:57:03;9.65;;;2.55;;
42200;SDS011;27869;51.442;7.540;2023-02-19T11:59:39;12.02;;;2.70;;
42200;SDS011;27869;51.442;7.540;2023-02-19T12:11:09;7.70;;;2.30;;
42200;SDS011;27869;51.442;7.540;2023-02-19T12:13:47;7.97;;;2.10;;
42200;SDS011;27869;51.442;7.540;2023-02-19T12:16:25;9.32;;;2.30;;
42200;SDS011;27869;51.442;7.540;2023-02-19T12:19:06;9.52;;;2.03;;
42200;SDS011;27869;51.442;7.540;2023-02-19T12:21:59;7.00;;;2.08;;
42200;SDS011;27869;51.442;7.540;2023-02-19T12:27:51;9.40;;;2.85;;
42200;SDS011;27869;51.442;7.540;2023-02-19T12:30:30;9.02;;;2.95;;
42200;SDS011;27869;51.442;7.540;2023-02-19T12:36:17;11.05;;;3.47;;
42200;SDS011;27869;51.442;7.540;2023-02-19T12:38:53;8.32;;;2.60;;
42200;SDS011;27869;51.442;7.540;2023-02-19T12:41:30;8.85;;;2.90;;
42200;SDS011;27869;51.442;7.540;2023-02-19T12:44:10;7.97;;;2.63;;
42200;SDS011;27869;51.442;7.540;2023-02-19T12:46:41;8.63;;;2.50;;
42200;SDS011;27869;51.442;7.540;2023-02-19T12:49:12;7.63;;;2.60;;
42200;SDS011;27869;51.442;7.540;2023-02-19T12:51:45;7.55;;;2.45;;
42200;SDS011;27869;51.442;7.540;2023-02-19T12:54:15;7.15;;;2.08;;
42200;SDS011;27869;51.442;7.540;2023-02-19T12:56:49;9.55;;;2.55;;
42200;SDS011;27869;51.442;7.540;2023-02-19T12:59:23;7.45;;;2.50;;
42200;SDS011;27869;51.442;7.540;2023-02-19T13:01:55;6.90;;;2.25;;
42200;SDS011;27869;51.442;7.540;2023-02-19T13:04:29;7.85;;;2.42;;
42200;SDS011;27869;51.442;7.540;2023-02-19T13:07:05;7.25;;;2.30;;
42200;SDS011;27869;51.442;7.540;2023-02-19T13:09:40;7.68;;;2.20;;
42200;SDS011;27869;51.442;7.540;2023-02-19T13:12:12;7.25;;;2.08;;
42200;SDS011;27869;51.442;7.540;2023-02-19T13:14:46;8.32;;;2.33;;
42200;SDS011;27869;51.442;7.540;2023-02-19T13:17:20;7.95;;;2.00;;
42200;SDS011;27869;51.442;7.540;2023-02-19T13:19:52;9.27;;;2.63;;
42200;SDS011;27869;51.442;7.540;2023-02-19T13:22:31;7.75;;;2.30;;
42200;SDS011;27869;51.442;7.540;2023-02-19T13:25:20;8.23;;;2.40;;
42200;SDS011;27869;51.442;7.540;2023-02-19T13:30:52;6.78;;;2.03;;
42200;SDS011;27869;51.442;7.540;2023-02-19T13:36:03;7.78;;;2.20;;
42200;SDS011;27869;51.442;7.540;2023-02-19T13:38:36;9.88;;;2.45;;
42200;SDS011;27869;51.442;7.540;2023-02-19T13:41:05;8.82;;;2.38;;
42200;SDS011;27869;51.442;7.540;2023-02-19T13:43:41;8.45;;;2.40;;
42200;SDS011;27869;51.442;7.540;2023-02-19T13:46:12;8.73;;;2.83;;
42200;SDS011;27869;51.442;7.540;2023-02-19T13:48:42;8.15;;;2.58;;
42200;SDS011;27869;51.442;7.540;2023-02-19T13:54:27;9.55;;;2.70;;
42200;SDS011;27869;51.442;7.540;2023-02-19T13:59:52;10.60;;;3.35;;
42200;SDS011;27869;51.442;7.540;2023-02-19T14:02:25;10.82;;;3.65;;
42200;SDS011;27869;51.442;7.540;2023-02-19T14:04:55;10.68;;;3.60;;
42200;SDS011;27869;51.442;7.540;2023-02-19T14:19:52;12.02;;;3.30;;
42200;SDS011;27869;51.442;7.540;2023-02-19T14:25:43;12.60;;;3.45;;
42200;SDS011;27869;51.442;7.540;2023-02-19T14:31:26;39.15;;;16.17;;
42200;SDS011;27869;51.442;7.540;2023-02-19T14:33:55;15.25;;;6.05;;
42200;SDS011;27869;51.442;7.540;2023-02-19T14:36:30;12.25;;;4.55;;
42200;SDS011;27869;51.442;7.540;2023-02-19T14:39:05;11.55;;;3.92;;
42200;SDS011;27869;51.442;7.540;2023-02-19T14:41:37;12.80;;;5.10;;
42200;SDS011;27869;51.442;7.540;2023-02-19T14:44:11;12.65;;;4.03;;
42200;SDS011;27869;51.442;7.540;2023-02-19T14:46:44;11.20;;;4.13;;
42200;SDS011;27869;51.442;7.540;2023-02-19T14:49:17;16.02;;;5.70;;
42200;SDS011;27869;51.442;7.540;2023-02-19T14:51:51;27.33;;;12.70;;
42200;SDS011;27869;51.442;7.540;2023-02-19T14:56:58;12.65;;;3.85;;
42200;SDS011;27869;51.442;7.540;2023-02-19T14:59:28;11.50;;;3.75;;
42200;SDS011;27869;51.442;7.540;2023-02-19T15:01:57;12.45;;;4.38;;
42200;SDS011;27869;51.442;7.540;2023-02-19T15:04:26;12.48;;;4.70;;
42200;SDS011;27869;51.442;7.540;2023-02-19T15:06:57;11.90;;;4.35;;
42200;SDS011;27869;51.442;7.540;2023-02-19T15:09:28;12.77;;;4.45;;
42200;SDS011;27869;51.442;7.540;2023-02-19T15:11:58;12.77;;;5.68;;
42200;SDS011;27869;51.442;7.540;2023-02-19T15:14:27;11.73;;;4.47;;
42200;SDS011;27869;51.442;7.540;2023-02-19T15:19:24;13.07;;;4.53;;
42200;SDS011;27869;51.442;7.540;2023-02-19T15:21:52;14.20;;;5.88;;
42200;SDS011;27869;51.442;7.540;2023-02-19T15:24:21;18.80;;;6.65;;
42200;SDS011;27869;51.442;7.540;2023-02-19T15:26:48;15.85;;;6.22;;
42200;SDS011;27869;51.442;7.540;2023-02-19T15:29:19;13.50;;;5.70;;
42200;SDS011;27869;51.442;7.540;2023-02-19T15:31:47;13.95;;;5.57;;
42200;SDS011;27869;51.442;7.540;2023-02-19T15:34:19;13.98;;;5.40;;
42200;SDS011;27869;51.442;7.540;2023-02-19T15:36:48;13.07;;;5.32;;
42200;SDS011;27869;51.442;7.540;2023-02-19T15:39:18;13.55;;;5.68;;
42200;SDS011;27869;51.442;7.540;2023-02-19T15:41:58;14.30;;;6.15;;
42200;SDS011;27869;51.442;7.540;2023-02-19T15:44:35;13.88;;;5.40;;
42200;SDS011;27869;51.442;7.540;2023-02-19T15:47:08;12.88;;;5.20;;
42200;SDS011;27869;51.442;7.540;2023-02-19T15:49:41;11.75;;;5.03;;
42200;SDS011;27869;51.442;7.540;2023-02-19T15:52:16;12.05;;;4.97;;
42200;SDS011;27869;51.442;7.540;2023-02-19T15:54:53;13.43;;;4.97;;
42200;SDS011;27869;51.442;7.540;2023-02-19T15:57:25;11.13;;;4.25;;
42200;SDS011;27869;51.442;7.540;2023-02-19T15:59:58;17.00;;;5.00;;
42200;SDS011;27869;51.442;7.540;2023-02-19T16:02:29;14.32;;;4.82;;